Time;durP1;ratioP1;P1;durP2;ratioP2;P2;SDS_P1;SDS_P2;PMS_P1;PMS_P2;Temp;Humidity;BMP_temperature;BMP_pressure;BME280_temperature;BME280_humidity;BME280_pressure;Samples;Min_cycle;Max_cycle;Signal;HPM_P1;HPM_P2
2021/12/01 00:00:19;;;;;;;3.03;1.38;;;;;;;4.35;100.00;97436.88;4209039;27;20043;-72
2021/12/01 00:02:20;;;;;;;2.58;1.63;;;;;;;4.33;100.00;97439.97;4207154;27;20418;-72
2021/12/01 00:04:20;;;;;;;1.70;1.10;;;;;;;4.39;100.00;97430.31;4206257;27;20043;-72
2021/12/01 00:06:20;;;;;;;0.90;0.90;;;;;;;4.43;100.00;97425.69;4207260;27;20040;-72
2021/12/01 00:08:21;;;;;;;0.60;0.60;;;;;;;4.49;100.00;97423.44;4207104;27;20484;-71
2021/12/01 00:10:25;;;;;;;0.77;0.77;;;;;;;4.51;100.00;97421.91;4206020;27;20036;-71
2021/12/01 00:12:25;;;;;;;0.63;0.63;;;;;;;4.53;100.00;97412.53;4207888;27;20505;-72
2021/12/01 00:14:26;;;;;;;0.70;0.70;;;;;;;4.54;100.00;97414.13;4206335;27;20036;-71
2021/12/01 00:16:26;;;;;;;0.60;0.60;;;;;;;4.58;100.00;97407.56;4206525;27;20036;-71
2021/12/01 00:18:27;;;;;;;0.60;0.60;;;;;;;4.66;100.00;97408.50;4207982;27;20065;-71
2021/12/01 00:20:28;;;;;;;0.57;0.57;;;;;;;4.67;100.00;97408.13;4206046;27;20463;-72
2021/12/01 00:22:28;;;;;;;0.70;0.70;;;;;;;4.67;100.00;97407.31;4208121;27;20072;-71
2021/12/01 00:24:29;;;;;;;0.70;0.70;;;;;;;4.65;100.00;97404.16;4205949;27;20032;-71
2021/12/01 00:26:29;;;;;;;1.25;0.70;;;;;;;4.64;100.00;97406.13;4209079;27;20032;-72
2021/12/01 00:28:30;;;;;;;1.25;0.80;;;;;;;4.63;100.00;97390.03;4207725;27;20558;-72
2021/12/01 00:30:30;;;;;;;1.05;0.63;;;;;;;4.65;100.00;97387.72;4205571;27;20475;-72
2021/12/01 00:32:31;;;;;;;1.48;0.60;;;;;;;4.64;100.00;97397.09;4207696;27;20050;-72
2021/12/01 00:34:32;;;;;;;1.42;0.80;;;;;;;4.65;100.00;97395.94;4205721;27;20075;-71
2021/12/01 00:36:33;;;;;;;0.70;0.70;;;;;;;4.62;100.00;97385.69;4212273;27;20558;-71
2021/12/01 00:38:35;;;;;;;0.85;0.80;;;;;;;4.66;100.00;97384.63;4206322;27;20039;-71
2021/12/01 00:40:35;;;;;;;1.42;0.80;;;;;;;4.64;100.00;97384.19;4205900;27;20032;-72
2021/12/01 00:42:36;;;;;;;0.60;0.60;;;;;;;4.68;100.00;97389.72;4207895;27;20715;-72
2021/12/01 00:44:36;;;;;;;0.60;0.60;;;;;;;4.72;100.00;97376.88;4205818;27;20140;-72
2021/12/01 00:48:41;;;;;;;1.13;0.80;;;;;;;4.69;100.00;97374.88;4212144;27;20417;-71
2021/12/01 00:50:41;;;;;;;0.60;0.60;;;;;;;4.67;100.00;97372.50;4211385;27;20031;-71
2021/12/01 00:52:42;;;;;;;0.70;0.70;;;;;;;4.68;100.00;97365.06;4205228;27;20676;-72
2021/12/01 00:54:42;;;;;;;0.90;0.80;;;;;;;4.75;100.00;97360.50;4206017;27;20082;-71
2021/12/01 00:56:44;;;;;;;0.93;0.88;;;;;;;4.83;100.00;97366.88;4206058;27;20087;-71
2021/12/01 00:58:44;;;;;;;0.80;0.80;;;;;;;4.80;99.44;97362.16;4204079;27;20039;-71
2021/12/01 01:00:48;;;;;;;1.58;0.80;;;;;;;4.76;100.00;97348.38;4207300;27;20320;-71
2021/12/01 01:02:50;;;;;;;0.80;0.80;;;;;;;4.78;99.85;97358.97;4210553;27;20084;-71
2021/12/01 01:04:50;;;;;;;0.60;0.60;;;;;;;4.84;98.88;97362.19;4206997;27;20507;-71
2021/12/01 01:06:51;;;;;;;0.75;0.75;;;;;;;4.84;98.35;97346.53;4204822;27;20058;-71
2021/12/01 01:08:51;;;;;;;0.70;0.70;;;;;;;4.88;98.39;97360.28;4207684;27;20277;-71
2021/12/01 01:18:08;;;;;;;0.63;0.60;;;;;;;4.74;98.69;97350.69;4207241;27;20256;-71
2021/12/01 01:20:11;;;;;;;0.60;0.60;;;;;;;4.71;99.22;97356.09;4207088;27;20436;-72
2021/12/01 01:22:12;;;;;;;0.60;0.60;;;;;;;4.69;99.71;97347.47;4207602;27;20063;-72
2021/12/01 01:24:13;;;;;;;0.70;0.70;;;;;;;4.64;100.00;97340.38;4204169;28;20036;-72
2021/12/01 01:26:16;;;;;;;0.60;0.60;;;;;;;4.67;100.00;97342.34;4210391;28;20038;-71
2021/12/01 01:28:17;;;;;;;0.80;0.70;;;;;;;4.64;100.00;97342.31;4209656;27;20307;-71
2021/12/01 01:30:17;;;;;;;0.60;0.60;;;;;;;4.67;99.65;97334.13;4204804;28;20056;-71
2021/12/01 01:32:18;;;;;;;0.68;0.65;;;;;;;4.67;100.00;97333.34;4210472;27;20422;-71
2021/12/01 01:34:18;;;;;;;0.60;0.60;;;;;;;4.68;99.71;97327.50;4207156;28;20368;-71
2021/12/01 01:36:20;;;;;;;0.60;0.60;;;;;;;4.67;99.31;97325.91;4206331;28;20450;-71
2021/12/01 01:38:20;;;;;;;1.00;0.60;;;;;;;4.62;99.85;97320.75;4211293;27;20034;-71
2021/12/01 01:40:21;;;;;;;0.70;0.70;;;;;;;4.64;100.00;97323.13;4206670;28;20146;-72
2021/12/01 01:42:22;;;;;;;0.98;0.60;;;;;;;4.69;99.59;97320.06;4206971;28;20040;-72
2021/12/01 01:44:22;;;;;;;1.10;0.70;;;;;;;4.71;98.49;97321.28;4204307;28;20036;-72
2021/12/01 01:46:23;;;;;;;1.30;0.85;;;;;;;4.71;98.77;97320.47;4206235;28;20047;-71
2021/12/01 01:48:35;;;;;;;1.85;0.70;;;;;;;4.74;98.62;97319.75;4209484;28;20111;-71
2021/12/01 01:50:39;;;;;;;0.63;0.63;;;;;;;4.76;98.53;97318.22;4211280;28;20309;-71
2021/12/01 01:52:39;;;;;;;0.60;0.60;;;;;;;4.76;97.54;97317.44;4208764;28;20038;-71
2021/12/01 01:54:40;;;;;;;0.50;0.50;;;;;;;4.77;97.47;97305.31;4208006;28;20036;-71
2021/12/01 01:56:41;;;;;;;1.23;0.50;;;;;;;4.85;97.03;97314.44;4205608;27;20043;-71
2021/12/01 01:58:42;;;;;;;0.40;0.40;;;;;;;4.87;96.83;97307.44;4210841;28;20480;-71
2021/12/01 02:00:54;;;;;;;0.50;0.50;;;;;;;4.83;96.94;97312.06;4205578;28;20119;-71
2021/12/01 02:02:57;;;;;;;0.50;0.50;;;;;;;4.82;96.69;97306.97;4208764;28;20533;-71
2021/12/01 02:04:57;;;;;;;0.50;0.50;;;;;;;4.80;97.35;97318.31;4205384;28;20036;-71
2021/12/01 02:06:58;;;;;;;0.50;0.50;;;;;;;4.84;97.51;97302.69;4206743;28;20050;-71
2021/12/01 02:08:58;;;;;;;1.98;0.70;;;;;;;4.78;97.95;97304.94;4203951;28;20435;-71
2021/12/01 02:11:01;;;;;;;0.60;0.60;;;;;;;4.84;97.71;97289.00;4205362;28;20044;-71
2021/12/01 02:13:01;;;;;;;1.20;0.60;;;;;;;4.77;98.85;97277.91;4210680;27;20040;-71
2021/12/01 02:15:02;;;;;;;1.13;0.55;;;;;;;4.67;98.75;97282.09;4208347;27;20040;-72
2021/12/01 02:17:03;;;;;;;0.50;0.50;;;;;;;4.69;99.56;97281.72;4217241;27;20036;-72
2021/12/01 02:19:04;;;;;;;0.50;0.50;;;;;;;4.71;99.29;97282.91;4207016;27;20479;-72
2021/12/01 02:21:27;;;;;;;0.50;0.50;;;;;;;4.67;98.52;97259.38;4208810;27;20430;-72
2021/12/01 02:23:28;;;;;;;0.55;0.55;;;;;;;4.68;98.18;97260.94;4210130;27;20101;-71
2021/12/01 02:25:29;;;;;;;0.60;0.60;;;;;;;4.68;98.26;97247.25;4209288;27;20126;-71
2021/12/01 02:27:29;;;;;;;0.60;0.60;;;;;;;4.64;98.53;97239.00;4207376;27;20094;-71
2021/12/01 02:29:30;;;;;;;0.70;0.70;;;;;;;4.63;98.74;97233.84;4210176;27;20024;-71
2021/12/01 02:31:34;;;;;;;0.60;0.60;;;;;;;4.59;99.47;97236.56;4208021;27;20052;-72
2021/12/01 02:33:34;;;;;;;0.65;0.60;;;;;;;4.62;99.11;97235.03;4209064;27;20357;-72
2021/12/01 02:35:35;;;;;;;2.05;0.50;;;;;;;4.61;99.81;97230.72;4207727;27;20052;-72
2021/12/01 02:37:40;;;;;;;0.50;0.50;;;;;;;4.61;99.10;97230.72;4209511;27;20044;-72
2021/12/01 02:39:40;;;;;;;1.30;0.55;;;;;;;4.60;98.71;97234.59;4213481;27;20066;-71
2021/12/01 02:41:43;;;;;;;0.57;0.57;;;;;;;4.61;98.43;97223.28;4211044;28;20558;-71
2021/12/01 02:43:46;;;;;;;0.60;0.60;;;;;;;4.62;97.88;97215.84;4208473;27;20731;-72
2021/12/01 02:45:50;;;;;;;0.50;0.50;;;;;;;4.60;98.04;97207.22;4212446;27;20080;-71
2021/12/01 02:47:51;;;;;;;0.50;0.50;;;;;;;4.59;98.10;97198.22;4208195;27;20164;-71
2021/12/01 02:49:54;;;;;;;0.50;0.50;;;;;;;4.57;96.96;97180.56;4208006;27;20079;-72
2021/12/01 02:51:56;;;;;;;0.60;0.57;;;;;;;4.53;97.83;97164.06;4208795;27;20479;-71
2021/12/01 02:53:56;;;;;;;0.50;0.50;;;;;;;4.54;97.72;97173.06;4207494;27;20180;-71
2021/12/01 02:56:00;;;;;;;0.40;0.40;;;;;;;4.53;97.57;97164.06;4210139;27;20128;-71
2021/12/01 02:58:01;;;;;;;0.50;0.50;;;;;;;4.48;98.62;97154.25;4210799;27;20142;-72
2021/12/01 03:00:02;;;;;;;0.40;0.40;;;;;;;4.49;96.85;97152.28;4210106;27;20055;-72
2021/12/01 03:02:03;;;;;;;0.40;0.40;;;;;;;4.51;96.23;97153.50;4207367;27;20027;-72
2021/12/01 03:04:04;;;;;;;0.50;0.50;;;;;;;4.54;96.14;97143.72;4209867;27;20031;-72
2021/12/01 03:06:06;;;;;;;0.40;0.40;;;;;;;4.58;94.50;97136.38;4207169;27;20036;-72
2021/12/01 03:08:07;;;;;;;0.40;0.40;;;;;;;4.57;95.26;97143.00;4207308;27;20073;-71
2021/12/01 03:10:08;;;;;;;0.43;0.43;;;;;;;4.54;95.73;97140.22;4208222;27;20270;-72
2021/12/01 03:12:09;;;;;;;0.40;0.40;;;;;;;4.51;96.02;97139.78;4213332;27;20092;-72
2021/12/01 03:14:12;;;;;;;0.40;0.40;;;;;;;4.48;96.70;97132.31;4210112;27;20379;-72
2021/12/01 03:16:15;;;;;;;0.50;0.50;;;;;;;4.43;96.90;97129.91;4207232;27;20073;-71
2021/12/01 03:18:16;;;;;;;0.43;0.43;;;;;;;4.42;96.85;97133.00;4207864;27;20115;-72
2021/12/01 03:20:20;;;;;;;0.40;0.40;;;;;;;4.42;96.81;97124.78;4215877;27;20035;-72
2021/12/01 03:22:21;;;;;;;0.40;0.40;;;;;;;4.41;96.69;97117.75;4215152;27;20907;-72
2021/12/01 03:24:21;;;;;;;0.40;0.40;;;;;;;4.48;94.89;97120.59;4206383;27;20051;-71
2021/12/01 03:26:22;;;;;;;0.75;0.50;;;;;;;4.42;96.73;97111.88;4209113;27;20198;-72
2021/12/01 03:28:22;;;;;;;0.40;0.40;;;;;;;4.42;96.08;97125.59;4221496;27;20067;-72
2021/12/01 03:30:23;;;;;;;0.40;0.40;;;;;;;4.42;95.51;97125.59;4210025;27;20067;-72
2021/12/01 03:32:23;;;;;;;0.40;0.40;;;;;;;4.39;96.74;97128.28;4212383;27;20036;-72
2021/12/01 03:34:24;;;;;;;0.65;0.50;;;;;;;4.42;96.61;97124.78;4213997;27;20046;-72
2021/12/01 03:36:24;;;;;;;0.50;0.50;;;;;;;4.38;97.20;97122.00;4205646;27;20225;-72
2021/12/01 03:38:27;;;;;;;0.82;0.50;;;;;;;4.38;97.69;97121.19;4208655;27;20126;-72
2021/12/01 03:40:27;;;;;;;0.50;0.50;;;;;;;4.44;95.43;97115.03;4208395;27;20074;-72
2021/12/01 03:42:28;;;;;;;0.60;0.60;;;;;;;4.40;97.31;97103.25;4208276;27;20468;-72
2021/12/01 03:44:28;;;;;;;0.40;0.40;;;;;;;4.43;97.66;97101.72;4210876;27;20071;-72
2021/12/01 03:46:28;;;;;;;0.50;0.50;;;;;;;4.40;97.07;97095.06;4210712;27;20426;-72
2021/12/01 03:48:29;;;;;;;0.50;0.50;;;;;;;4.51;96.61;97101.44;4207827;27;20094;-71
2021/12/01 03:50:30;;;;;;;0.60;0.60;;;;;;;4.46;97.91;97092.75;4204906;28;20367;-71
2021/12/01 03:52:30;;;;;;;0.63;0.63;;;;;;;4.43;97.29;97088.03;4209055;27;20096;-72
2021/12/01 03:54:31;;;;;;;0.70;0.70;;;;;;;4.46;96.95;97098.22;4207510;27;20116;-71
2021/12/01 03:56:33;;;;;;;0.68;0.68;;;;;;;4.43;97.77;97098.97;4207553;27;20119;-72
2021/12/01 03:58:34;;;;;;;0.70;0.70;;;;;;;4.44;98.15;97089.59;4206653;27;20040;-71
2021/12/01 04:00:36;;;;;;;0.82;0.80;;;;;;;4.42;97.28;97092.72;4208801;27;20093;-71
2021/12/01 04:02:37;;;;;;;0.98;0.80;;;;;;;4.50;96.97;97080.69;4210801;27;20040;-71
2021/12/01 04:04:37;;;;;;;0.63;0.63;;;;;;;4.51;97.26;97081.50;4208528;27;20058;-71
2021/12/01 04:06:38;;;;;;;0.80;0.80;;;;;;;4.48;97.56;97072.06;4209078;27;20055;-71
2021/12/01 04:08:38;;;;;;;1.02;0.85;;;;;;;4.46;97.40;97057.16;4211873;27;20044;-72
2021/12/01 04:10:39;;;;;;;1.75;0.80;;;;;;;4.46;97.53;97057.94;4212752;27;20521;-72
2021/12/01 04:12:41;;;;;;;0.75;0.75;;;;;;;4.48;97.19;97052.13;4210325;27;20166;-71
2021/12/01 04:14:41;;;;;;;0.90;0.85;;;;;;;4.45;97.56;97034.47;4210462;27;20032;-72
2021/12/01 04:16:42;;;;;;;1.10;0.73;;;;;;;4.44;97.90;97032.88;4206347;27;20349;-72
2021/12/01 04:18:44;;;;;;;0.80;0.80;;;;;;;4.41;97.94;97038.31;4208115;27;20047;-72
2021/12/01 04:20:44;;;;;;;0.80;0.80;;;;;;;4.47;97.82;97047.81;4208542;27;20721;-72
2021/12/01 04:22:47;;;;;;;0.80;0.80;;;;;;;4.43;97.84;97031.31;4208473;27;20032;-72
2021/12/01 04:24:48;;;;;;;0.93;0.90;;;;;;;4.49;97.73;97043.53;4207440;27;20047;-72
2021/12/01 04:26:49;;;;;;;1.00;0.90;;;;;;;4.52;97.41;97036.50;4210902;27;20044;-71
2021/12/01 04:28:51;;;;;;;1.52;0.80;;;;;;;4.51;97.20;97035.72;4209010;27;20061;-71
2021/12/01 04:30:51;;;;;;;1.10;1.00;;;;;;;4.48;97.08;97039.22;4208094;27;20050;-71
2021/12/01 04:32:53;;;;;;;0.70;0.70;;;;;;;4.47;96.66;97042.31;4209559;27;20440;-71
2021/12/01 04:34:53;;;;;;;0.70;0.70;;;;;;;4.54;95.66;97025.94;4210187;27;20055;-71
2021/12/01 04:36:54;;;;;;;0.70;0.70;;;;;;;4.49;96.30;97018.88;4207194;27;20079;-71
2021/12/01 04:38:54;;;;;;;0.73;0.70;;;;;;;4.46;97.00;97013.34;4210121;27;20476;-71
2021/12/01 04:40:55;;;;;;;1.30;0.60;;;;;;;4.44;97.26;97016.44;4207111;27;20431;-72
2021/12/01 04:42:55;;;;;;;0.95;0.73;;;;;;;4.40;96.86;97006.63;4210593;27;20052;-72
2021/12/01 04:44:55;;;;;;;0.70;0.70;;;;;;;4.44;96.18;97010.97;4208932;27;20039;-72
2021/12/01 04:46:58;;;;;;;1.00;0.77;;;;;;;4.51;95.93;97010.28;4207418;27;20044;-72
2021/12/01 04:48:58;;;;;;;0.70;0.70;;;;;;;4.51;95.62;96999.31;4208726;27;20136;-72
2021/12/01 04:50:59;;;;;;;1.02;0.98;;;;;;;4.48;95.90;96995.38;4207567;27;20039;-71
2021/12/01 04:53:00;;;;;;;0.70;0.70;;;;;;;4.48;95.97;97009.06;4207409;27;20072;-71
2021/12/01 04:55:00;;;;;;;1.08;0.95;;;;;;;4.50;96.23;96998.53;4209706;27;20439;-71
2021/12/01 04:57:02;;;;;;;0.90;0.90;;;;;;;4.48;96.12;96994.59;4211548;27;20400;-72
2021/12/01 04:59:06;;;;;;;1.25;0.90;;;;;;;4.44;96.30;96983.59;4205483;27;20071;-72
2021/12/01 05:01:06;;;;;;;0.80;0.80;;;;;;;4.45;96.40;96984.38;4209412;27;20424;-72
2021/12/01 05:03:07;;;;;;;0.75;0.75;;;;;;;4.41;96.73;96992.56;4210237;27;20050;-72
2021/12/01 05:05:08;;;;;;;2.17;1.20;;;;;;;4.40;96.84;96982.78;4206288;27;20144;-72
2021/12/01 05:07:13;;;;;;;3.08;1.27;;;;;;;4.43;96.25;96981.22;4208016;27;20401;-72
2021/12/01 05:09:13;;;;;;;1.00;0.90;;;;;;;4.45;96.53;96973.41;4210419;27;20745;-72
2021/12/01 05:11:14;;;;;;;0.70;0.70;;;;;;;4.39;96.37;96964.78;4208109;27;20046;-72
2021/12/01 05:13:14;;;;;;;1.15;1.05;;;;;;;4.43;95.25;96962.84;4207419;28;20036;-71
2021/12/01 05:15:15;;;;;;;0.82;0.82;;;;;;;4.40;96.72;96957.34;4209814;27;20039;-71
2021/12/01 05:17:17;;;;;;;1.00;0.90;;;;;;;4.36;97.10;96956.50;4208285;27;20519;-72
2021/12/01 05:19:18;;;;;;;1.13;0.80;;;;;;;4.36;97.02;96948.28;4206401;28;20353;-72
2021/12/01 05:21:18;;;;;;;1.10;1.00;;;;;;;4.40;96.86;96949.91;4209225;27;20054;-72
2021/12/01 05:23:19;;;;;;;1.30;0.95;;;;;;;4.43;96.33;96951.09;4208064;27;20036;-72
2021/12/01 05:25:19;;;;;;;1.02;0.90;;;;;;;4.40;96.52;96941.69;4210092;28;20036;-72
2021/12/01 05:27:20;;;;;;;0.80;0.80;;;;;;;4.37;96.74;96942.44;4203791;28;20839;-72
2021/12/01 05:29:22;;;;;;;1.23;1.02;;;;;;;4.27;96.85;96940.38;4207487;27;20063;-72
2021/12/01 05:31:22;;;;;;;0.70;0.70;;;;;;;4.30;96.69;96925.13;4205928;27;20079;-71
2021/12/01 05:33:22;;;;;;;0.90;0.90;;;;;;;4.30;96.37;96927.88;4207406;28;20043;-71
2021/12/01 05:35:23;;;;;;;0.90;0.90;;;;;;;4.35;95.96;96933.81;4210614;27;20502;-71
2021/12/01 05:37:24;;;;;;;1.00;0.90;;;;;;;4.36;96.05;96916.22;4211103;27;20047;-71
2021/12/01 05:39:24;;;;;;;1.00;0.90;;;;;;;4.36;96.03;96909.94;4209702;28;20036;-71
2021/12/01 05:41:25;;;;;;;0.77;0.77;;;;;;;4.39;96.08;96914.69;4210955;27;20036;-71
2021/12/01 05:43:25;;;;;;;0.80;0.80;;;;;;;4.35;95.77;96919.31;4209707;28;20040;-71
2021/12/01 05:45:26;;;;;;;1.17;0.90;;;;;;;4.31;96.02;96913.81;4209577;28;20534;-71
2021/12/01 05:47:26;;;;;;;0.93;0.90;;;;;;;4.32;96.39;96920.88;4209696;27;20070;-71
2021/12/01 05:49:27;;;;;;;1.13;1.02;;;;;;;4.33;95.87;96914.22;4214039;27;20039;-71
2021/12/01 05:51:27;;;;;;;0.95;0.93;;;;;;;4.28;95.63;96903.59;4209660;27;20079;-71
2021/12/01 05:53:28;;;;;;;1.15;1.05;;;;;;;4.26;96.07;96907.88;4215182;27;20036;-71
2021/12/01 05:55:29;;;;;;;1.48;1.27;;;;;;;4.35;95.47;96911.13;4210603;27;20043;-71
2021/12/01 05:57:29;;;;;;;1.85;1.40;;;;;;;4.28;96.21;96906.34;4214523;27;20036;-72
2021/12/01 05:59:31;;;;;;;1.30;1.20;;;;;;;4.28;96.35;96928.25;4210885;27;20047;-72
2021/12/01 06:01:32;;;;;;;1.40;1.30;;;;;;;4.24;96.61;96924.69;4213697;27;20039;-72
2021/12/01 06:03:33;;;;;;;2.85;2.10;;;;;;;4.26;95.79;96941.53;4211520;27;20869;-72
2021/12/01 06:05:33;;;;;;;2.15;1.80;;;;;;;4.22;96.87;96941.50;4213039;27;20097;-72
2021/12/01 06:07:33;;;;;;;1.60;1.50;;;;;;;4.23;97.01;96939.56;4213664;27;20039;-71
2021/12/01 06:09:34;;;;;;;1.50;1.30;;;;;;;4.20;97.20;96927.38;4212653;27;20904;-71
2021/12/01 06:11:35;;;;;;;1.35;1.25;;;;;;;4.22;96.85;96936.03;4213168;27;20149;-71
2021/12/01 06:13:37;;;;;;;1.35;1.25;;;;;;;4.23;96.71;96934.84;4212885;27;20046;-71
2021/12/01 06:15:37;;;;;;;3.03;1.85;;;;;;;4.25;96.10;96933.69;4211545;27;20032;-71
2021/12/01 06:17:38;;;;;;;1.50;1.40;;;;;;;4.27;95.68;96939.56;4212065;27;20078;-71
2021/12/01 06:19:39;;;;;;;1.98;1.52;;;;;;;4.30;95.23;96934.13;4208253;27;20044;-72
2021/12/01 06:21:40;;;;;;;3.60;2.80;;;;;;;4.28;95.82;96941.94;4209866;27;20422;-72
2021/12/01 06:23:40;;;;;;;2.95;2.58;;;;;;;4.37;95.16;96936.94;4207615;27;20120;-72
2021/12/01 06:25:41;;;;;;;6.70;5.00;;;;;;;4.37;94.51;96936.94;4207206;27;20071;-72
2021/12/01 06:27:42;;;;;;;2.92;2.20;;;;;;;4.38;94.80;96935.78;4209769;27;20394;-72
2021/12/01 06:29:42;;;;;;;3.30;2.20;;;;;;;4.35;94.50;96920.13;4210952;27;20446;-72
2021/12/01 06:31:43;;;;;;;3.17;2.83;;;;;;;4.41;94.16;96918.63;4210988;27;20083;-72
2021/12/01 06:33:43;;;;;;;6.43;4.75;;;;;;;4.43;94.79;96908.06;4208335;27;20036;-71
2021/12/01 06:35:48;;;;;;;5.43;3.00;;;;;;;4.40;93.92;96897.88;4210071;27;20132;-71
2021/12/01 06:37:50;;;;;;;3.03;1.95;;;;;;;4.36;94.19;96902.53;4207324;27;20097;-71
2021/12/01 06:39:51;;;;;;;2.85;1.75;;;;;;;4.36;94.39;96893.53;4209106;27;20048;-72
2021/12/01 06:41:54;;;;;;;2.22;1.90;;;;;;;4.35;94.84;96892.72;4208389;27;20040;-72
2021/12/01 06:43:54;;;;;;;1.67;1.55;;;;;;;4.36;93.91;96910.72;4206824;27;20419;-72
2021/12/01 06:45:55;;;;;;;2.88;1.85;;;;;;;4.34;94.88;96906.81;4209995;27;20066;-71
2021/12/01 06:47:55;;;;;;;3.00;2.10;;;;;;;4.33;94.92;96892.31;4206779;27;20098;-71
2021/12/01 06:49:56;;;;;;;3.28;2.67;;;;;;;4.30;95.00;96895.78;4208583;27;20521;-72
2021/12/01 06:51:56;;;;;;;4.28;2.28;;;;;;;4.34;94.21;96882.16;4215608;27;20048;-72
2021/12/01 06:53:56;;;;;;;3.35;2.17;;;;;;;4.32;94.93;96881.75;4208745;27;20035;-72
2021/12/01 06:55:57;;;;;;;2.42;2.20;;;;;;;4.31;95.38;96880.19;4207071;27;20484;-72
2021/12/01 06:57:57;;;;;;;3.22;2.40;;;;;;;4.35;94.62;96867.31;4208956;27;20036;-72
2021/12/01 06:59:58;;;;;;;4.93;3.30;;;;;;;4.40;93.14;96869.72;4210602;27;20520;-72
2021/12/01 07:01:59;;;;;;;2.80;2.30;;;;;;;4.34;94.12;96857.53;4206481;27;20047;-71
2021/12/01 07:03:59;;;;;;;2.72;2.40;;;;;;;4.33;93.97;96851.25;4208076;27;20418;-71
2021/12/01 07:06:01;;;;;;;4.53;2.22;;;;;;;4.33;93.97;96856.72;4209346;27;20048;-71
2021/12/01 07:08:02;;;;;;;2.00;1.80;;;;;;;4.44;92.10;96856.81;4207539;27;20048;-71
2021/12/01 07:10:05;;;;;;;2.50;1.70;;;;;;;4.44;92.61;96835.72;4205921;27;20754;-71
2021/12/01 07:12:06;;;;;;;2.50;1.88;;;;;;;4.44;92.56;96818.50;4211077;27;20216;-71
2021/12/01 07:14:07;;;;;;;3.13;1.83;;;;;;;4.38;93.25;96812.56;4209525;27;20064;-71
2021/12/01 07:16:07;;;;;;;3.20;2.10;;;;;;;4.38;93.54;96804.34;4211810;27;20437;-72
2021/12/01 07:18:08;;;;;;;1.83;1.70;;;;;;;4.37;94.20;96786.34;4209970;27;20038;-71
2021/12/01 07:20:10;;;;;;;1.75;1.48;;;;;;;4.42;93.64;96782.50;4207766;27;20100;-71
2021/12/01 07:22:11;;;;;;;1.73;1.50;;;;;;;4.38;93.07;96768.75;4207880;27;20093;-72
2021/12/01 07:24:12;;;;;;;1.67;1.52;;;;;;;4.43;92.46;96762.94;4207621;27;20476;-71
2021/12/01 07:26:12;;;;;;;2.60;1.60;;;;;;;4.40;92.88;96760.97;4208530;27;20031;-71
2021/12/01 07:28:12;;;;;;;1.52;1.38;;;;;;;4.44;92.36;96772.72;4206972;27;20050;-72
2021/12/01 07:30:13;;;;;;;1.60;1.48;;;;;;;4.41;92.23;96776.22;4207588;27;20043;-72
2021/12/01 07:32:13;;;;;;;2.20;1.52;;;;;;;4.50;91.80;96768.47;4208312;27;20549;-72
2021/12/01 07:34:15;;;;;;;2.08;1.55;;;;;;;4.45;92.10;96774.28;4207610;27;20031;-72
2021/12/01 07:36:16;;;;;;;1.60;1.42;;;;;;;4.42;93.04;96766.06;4209093;27;20040;-72
2021/12/01 07:38:16;;;;;;;3.10;1.58;;;;;;;4.40;92.97;96771.13;4207194;27;20028;-72
2021/12/01 07:40:17;;;;;;;1.80;1.40;;;;;;;4.38;92.25;96776.97;4207561;27;20136;-71
2021/12/01 07:42:17;;;;;;;1.48;1.38;;;;;;;4.50;90.52;96773.16;4210191;27;20140;-71
2021/12/01 07:44:18;;;;;;;1.40;1.30;;;;;;;4.46;90.89;96775.06;4207590;27;20202;-71
2021/12/01 07:46:18;;;;;;;2.95;1.60;;;;;;;4.45;91.56;96773.50;4209087;27;20035;-72
2021/12/01 07:48:19;;;;;;;2.22;1.80;;;;;;;4.42;91.93;96777.00;4207145;27;20043;-72
2021/12/01 07:50:20;;;;;;;2.25;1.77;;;;;;;4.55;90.07;96761.88;4207585;27;20051;-71
2021/12/01 07:52:21;;;;;;;2.50;2.13;;;;;;;4.52;90.33;96773.56;4221043;27;20054;-71
2021/12/01 07:54:21;;;;;;;2.95;1.83;;;;;;;4.49;89.34;96769.66;4211150;27;20611;-71
2021/12/01 07:56:22;;;;;;;2.00;1.60;;;;;;;4.48;90.56;96759.84;4206015;27;20043;-71
2021/12/01 07:58:23;;;;;;;1.73;1.50;;;;;;;4.49;90.15;96757.91;4207046;27;20058;-71
2021/12/01 08:00:23;;;;;;;2.30;1.30;;;;;;;4.51;90.59;96758.31;4208024;27;20636;-72
2021/12/01 08:02:24;;;;;;;1.85;1.50;;;;;;;4.46;91.66;96748.47;4206226;27;20044;-72
2021/12/01 08:04:25;;;;;;;3.22;1.50;;;;;;;4.51;91.55;96748.13;4207328;27;20085;-72
2021/12/01 08:06:26;;;;;;;1.52;1.35;;;;;;;4.53;90.85;96744.22;4206736;27;20051;-71
2021/12/01 08:08:27;;;;;;;3.15;1.95;;;;;;;4.49;90.29;96728.56;4206839;27;20181;-71
2021/12/01 08:10:28;;;;;;;1.92;1.30;;;;;;;4.50;90.02;96727.38;4206849;27;20055;-71
2021/12/01 08:12:28;;;;;;;3.00;2.10;;;;;;;4.50;90.76;96732.88;4206644;27;20040;-71
2021/12/01 08:14:29;;;;;;;1.73;1.40;;;;;;;4.51;91.06;96731.69;4208823;27;20483;-72
2021/12/01 08:16:29;;;;;;;1.95;1.75;;;;;;;4.54;90.60;96723.88;4205749;27;20371;-71
2021/12/01 08:18:30;;;;;;;1.38;1.23;;;;;;;4.57;90.37;96721.19;4206954;27;20043;-71
2021/12/01 08:20:33;;;;;;;2.17;1.95;;;;;;;4.51;90.84;96728.19;4208114;27;20031;-72
2021/12/01 08:22:34;;;;;;;3.03;1.50;;;;;;;4.49;90.03;96722.31;4206130;27;20090;-72
2021/12/01 08:24:34;;;;;;;2.75;1.45;;;;;;;4.53;90.55;96708.63;4207360;27;20047;-72
2021/12/01 08:26:35;;;;;;;3.17;1.52;;;;;;;4.50;90.70;96715.66;4212572;27;20040;-72
2021/12/01 08:28:35;;;;;;;1.67;1.40;;;;;;;4.48;91.04;96713.31;4208841;27;20044;-72
2021/12/01 08:30:36;;;;;;;2.30;1.70;;;;;;;4.49;90.64;96695.69;4204646;28;20040;-72
2021/12/01 08:32:36;;;;;;;1.52;1.15;;;;;;;4.49;89.94;96690.22;4205891;27;20067;-71
2021/12/01 08:34:37;;;;;;;3.30;2.22;;;;;;;4.55;91.18;96679.69;4207204;27;20676;-71
2021/12/01 08:36:39;;;;;;;1.63;1.30;;;;;;;4.47;91.29;96675.34;4210478;27;20047;-72
2021/12/01 08:38:40;;;;;;;1.50;1.10;;;;;;;4.47;91.45;96665.19;4205830;27;20051;-72
2021/12/01 08:40:41;;;;;;;1.75;1.20;;;;;;;4.45;91.73;96677.66;4206670;27;20046;-72
2021/12/01 08:42:42;;;;;;;1.52;1.30;;;;;;;4.45;91.51;96644.81;4208103;27;20032;-72
2021/12/01 08:44:45;;;;;;;1.92;1.48;;;;;;;4.47;91.61;96637.78;4204915;28;20135;-71
2021/12/01 08:46:46;;;;;;;1.75;1.63;;;;;;;4.52;91.08;96622.94;4208026;27;20068;-71
2021/12/01 08:48:47;;;;;;;2.13;1.60;;;;;;;4.51;90.96;96629.59;4206581;28;20046;-72
2021/12/01 08:50:47;;;;;;;2.60;1.73;;;;;;;4.56;91.29;96633.94;4205626;27;20050;-72
2021/12/01 08:52:48;;;;;;;1.83;1.30;;;;;;;4.54;91.57;96623.34;4208513;27;20028;-72
2021/12/01 08:54:50;;;;;;;2.53;1.40;;;;;;;4.66;90.07;96617.53;4207265;27;20063;-71
2021/12/01 08:56:50;;;;;;;2.47;1.40;;;;;;;4.73;89.08;96614.84;4210561;27;20044;-71
2021/12/01 08:58:51;;;;;;;2.55;1.20;;;;;;;4.76;89.07;96614.06;4205024;27;20492;-71
2021/12/01 09:00:55;;;;;;;3.17;1.50;;;;;;;4.77;88.53;96601.13;4208715;27;20105;-71
2021/12/01 09:02:56;;;;;;;4.18;1.50;;;;;;;4.79;88.38;96587.84;4206333;27;20046;-71
2021/12/01 09:04:56;;;;;;;2.38;1.50;;;;;;;4.77;89.38;96574.53;4207521;27;20048;-71
2021/12/01 09:06:57;;;;;;;2.15;1.30;;;;;;;4.86;89.63;96573.38;4207351;27;20043;-71
2021/12/01 09:08:57;;;;;;;1.83;1.50;;;;;;;4.83;89.01;96560.47;4208634;27;20130;-71
2021/12/01 09:11:02;;;;;;;1.73;1.55;;;;;;;4.79;90.10;96547.50;4205838;27;20040;-71
2021/12/01 09:13:05;;;;;;;1.88;1.30;;;;;;;4.85;89.39;96536.19;4210927;27;20298;-71
2021/12/01 09:15:06;;;;;;;;;;;;;;;4.88;89.07;96525.25;4210522;27;20088;-71
2021/12/01 09:17:08;;;;;;;2.25;1.60;;;;;;;4.80;90.38;96523.66;4206749;27;19935;-71
2021/12/01 09:19:09;;;;;;;2.30;1.70;;;;;;;4.84;91.49;96526.41;4208261;27;20239;-72
2021/12/01 09:21:09;;;;;;;2.10;1.40;;;;;;;4.83;91.48;96530.31;4205520;27;20144;-71
2021/12/01 09:23:10;;;;;;;1.48;1.30;;;;;;;4.86;90.95;96535.78;4206097;28;20456;-71
2021/12/01 09:25:11;;;;;;;1.67;1.27;;;;;;;4.87;90.81;96542.84;4208378;27;20051;-71
2021/12/01 09:27:12;;;;;;;1.38;1.25;;;;;;;4.85;90.71;96560.84;4214321;27;20464;-71
2021/12/01 09:29:12;;;;;;;1.35;1.13;;;;;;;4.88;90.27;96544.44;4206865;27;20044;-71
2021/12/01 09:31:13;;;;;;;1.73;1.38;;;;;;;4.87;91.63;96550.28;4205701;28;20407;-71
2021/12/01 09:33:16;;;;;;;1.38;1.20;;;;;;;4.83;91.55;96569.47;4207083;27;20048;-71
2021/12/01 09:35:16;;;;;;;3.90;1.30;;;;;;;4.93;90.36;96562.44;4205537;27;20039;-71
2021/12/01 09:37:16;;;;;;;1.50;1.20;;;;;;;4.89;90.88;96559.69;4206068;27;20434;-72
2021/12/01 09:39:20;;;;;;;1.65;1.20;;;;;;;4.89;91.13;96564.41;4206409;28;20058;-72
2021/12/01 09:41:21;;;;;;;2.13;1.27;;;;;;;4.92;91.77;96569.09;4206608;28;20135;-72
2021/12/01 09:43:25;;;;;;;5.22;2.00;;;;;;;4.92;90.68;96542.47;4215390;27;20120;-72
2021/12/01 09:45:26;;;;;;;2.45;1.48;;;;;;;4.93;91.63;96552.25;4211865;27;20444;-71